PSSUN KMCO-KOPF
Flight info
| Callsign | PSSUN |
|---|---|
| Flight time | 0h 40m |
| Altitude | 33000 |
| Route | DDANY3 JIPOD CUUDA3 |
| Aircraft | C750/M-SBDE3FGHRWXY/S |
Departure
| Time | 2026-04-22 00:45 |
|---|---|
| Airport | Orlando International Airport (KMCO) |
Arrival
| Time | 2026-04-22 01:25 |
|---|---|
| Airport | Miami-Opa Locka Executive Airport (KOPF) |
| Time | Latitude | Longitude | Altitude | Speed | Heading |
|---|---|---|---|---|---|
| 2026-04-22 00:22 | 28.44750 | -81.33095 | 95 ft | 0 kts | 276° |
| 2026-04-22 00:31 | 28.44748 | -81.33073 | 96 ft | 3 kts | 276° |
| 2026-04-22 00:31 | 28.44746 | -81.33054 | 96 ft | 0 kts | 276° |
| 2026-04-22 00:36 | 28.44746 | -81.33057 | 96 ft | 2 kts | 275° |
| 2026-04-22 00:36 | 28.44728 | -81.33084 | 96 ft | 6 kts | 200° |
| 2026-04-22 00:37 | 28.44668 | -81.33085 | 95 ft | 12 kts | 179° |
| 2026-04-22 00:37 | 28.44569 | -81.33085 | 95 ft | 14 kts | 184° |
| 2026-04-22 00:37 | 28.44542 | -81.33034 | 95 ft | 7 kts | 85° |
| 2026-04-22 00:37 | 28.44540 | -81.32964 | 95 ft | 10 kts | 91° |
| 2026-04-22 00:38 | 28.44539 | -81.32889 | 95 ft | 8 kts | 105° |
| 2026-04-22 00:38 | 28.44505 | -81.32869 | 95 ft | 4 kts | 177° |
| 2026-04-22 00:38 | 28.44437 | -81.32867 | 95 ft | 13 kts | 179° |
| 2026-04-22 00:38 | 28.44337 | -81.32866 | 95 ft | 15 kts | 180° |
| 2026-04-22 00:39 | 28.44230 | -81.32866 | 96 ft | 17 kts | 180° |
| 2026-04-22 00:39 | 28.44103 | -81.32865 | 96 ft | 19 kts | 180° |
| 2026-04-22 00:39 | 28.43971 | -81.32924 | 94 ft | 22 kts | 207° |
| 2026-04-22 00:39 | 28.43828 | -81.32932 | 96 ft | 21 kts | 179° |
| 2026-04-22 00:40 | 28.43685 | -81.32930 | 95 ft | 20 kts | 179° |
| 2026-04-22 00:40 | 28.43545 | -81.32928 | 95 ft | 22 kts | 179° |
| 2026-04-22 00:40 | 28.43380 | -81.32924 | 95 ft | 26 kts | 179° |
| 2026-04-22 00:40 | 28.43199 | -81.32926 | 95 ft | 26 kts | 179° |
| 2026-04-22 00:41 | 28.43024 | -81.32924 | 95 ft | 25 kts | 179° |
| 2026-04-22 00:41 | 28.42856 | -81.32922 | 95 ft | 24 kts | 179° |
| 2026-04-22 00:41 | 28.42689 | -81.32921 | 95 ft | 24 kts | 179° |
| 2026-04-22 00:41 | 28.42527 | -81.32920 | 96 ft | 23 kts | 180° |
| 2026-04-22 00:42 | 28.42368 | -81.32918 | 95 ft | 22 kts | 179° |
| 2026-04-22 00:42 | 28.42217 | -81.32916 | 95 ft | 22 kts | 179° |
| 2026-04-22 00:42 | 28.42068 | -81.32915 | 96 ft | 21 kts | 179° |
| 2026-04-22 00:42 | 28.41923 | -81.32914 | 96 ft | 20 kts | 179° |
| 2026-04-22 00:43 | 28.41783 | -81.32911 | 95 ft | 20 kts | 180° |
| 2026-04-22 00:43 | 28.41634 | -81.32910 | 95 ft | 22 kts | 180° |
| 2026-04-22 00:43 | 28.41538 | -81.32859 | 95 ft | 14 kts | 99° |
| 2026-04-22 00:43 | 28.41538 | -81.32767 | 96 ft | 0 kts | 89° |
| 2026-04-22 00:44 | 28.41538 | -81.32735 | 97 ft | 13 kts | 89° |
| 2026-04-22 00:44 | 28.41559 | -81.32665 | 97 ft | 6 kts | 356° |
| 2026-04-22 00:44 | 28.41698 | -81.32665 | 97 ft | 61 kts | 0° |
| 2026-04-22 00:45 | 28.42509 | -81.32673 | 235 ft | 140 kts | 0° |
| 2026-04-22 00:45 | 28.43514 | -81.32722 | 1021 ft | 148 kts | 1° |
| 2026-04-22 00:45 | 28.44541 | -81.32509 | 1686 ft | 159 kts | 38° |
| 2026-04-22 00:45 | 28.45291 | -81.31600 | 2527 ft | 160 kts | 57° |
| 2026-04-22 00:46 | 28.45811 | -81.30478 | 3446 ft | 163 kts | 66° |
| 2026-04-22 00:46 | 28.46379 | -81.29285 | 4310 ft | 179 kts | 62° |
| 2026-04-22 00:46 | 28.47060 | -81.27992 | 5041 ft | 205 kts | 60° |
| 2026-04-22 00:46 | 28.47888 | -81.26432 | 5093 ft | 245 kts | 59° |
| 2026-04-22 00:47 | 28.48751 | -81.24801 | 5008 ft | 243 kts | 60° |
| 2026-04-22 00:47 | 28.49618 | -81.23147 | 5021 ft | 244 kts | 60° |
| 2026-04-22 00:47 | 28.50398 | -81.21302 | 5229 ft | 267 kts | 73° |
| 2026-04-22 00:47 | 28.50739 | -81.19334 | 5811 ft | 245 kts | 79° |
| 2026-04-22 00:48 | 28.51042 | -81.17396 | 6201 ft | 264 kts | 80° |
| 2026-04-22 00:48 | 28.50857 | -81.15306 | 7202 ft | 268 kts | 102° |
| 2026-04-22 00:48 | 28.50375 | -81.13240 | 8359 ft | 272 kts | 102° |
| 2026-04-22 00:48 | 28.49898 | -81.11114 | 9451 ft | 280 kts | 102° |
| 2026-04-22 00:49 | 28.49412 | -81.08936 | 10419 ft | 287 kts | 102° |
| 2026-04-22 00:49 | 28.48911 | -81.06738 | 11280 ft | 293 kts | 103° |
| 2026-04-22 00:49 | 28.48034 | -81.04609 | 12001 ft | 306 kts | 127° |
| 2026-04-22 00:49 | 28.46461 | -81.02984 | 12999 ft | 306 kts | 140° |
| 2026-04-22 00:50 | 28.44767 | -81.01479 | 13930 ft | 311 kts | 141° |
| 2026-04-22 00:50 | 28.43070 | -80.99960 | 14706 ft | 317 kts | 141° |
| 2026-04-22 00:50 | 28.41330 | -80.98361 | 15466 ft | 323 kts | 141° |
| 2026-04-22 00:50 | 28.39563 | -80.96738 | 16272 ft | 329 kts | 141° |
| 2026-04-22 00:51 | 28.37761 | -80.95101 | 17117 ft | 333 kts | 142° |
| 2026-04-22 00:51 | 28.35931 | -80.93442 | 17980 ft | 338 kts | 142° |
| 2026-04-22 00:51 | 28.34100 | -80.91776 | 18808 ft | 344 kts | 142° |
| 2026-04-22 00:51 | 28.32211 | -80.90055 | 19532 ft | 351 kts | 142° |
| 2026-04-22 00:52 | 28.30278 | -80.88299 | 20307 ft | 358 kts | 143° |
| 2026-04-22 00:52 | 28.28380 | -80.86414 | 20943 ft | 368 kts | 133° |
| 2026-04-22 00:52 | 28.27098 | -80.83906 | 21642 ft | 374 kts | 113° |
| 2026-04-22 00:52 | 28.26122 | -80.81148 | 22467 ft | 380 kts | 111° |
| 2026-04-22 00:53 | 28.25145 | -80.78318 | 23178 ft | 389 kts | 111° |
| 2026-04-22 00:53 | 28.24111 | -80.75447 | 23917 ft | 396 kts | 112° |
| 2026-04-22 00:53 | 28.23040 | -80.72531 | 24572 ft | 402 kts | 112° |
| 2026-04-22 00:53 | 28.21977 | -80.69583 | 25302 ft | 405 kts | 111° |
| 2026-04-22 00:54 | 28.20934 | -80.66592 | 25982 ft | 409 kts | 109° |
| 2026-04-22 00:54 | 28.19967 | -80.63576 | 26661 ft | 413 kts | 110° |
| 2026-04-22 00:54 | 28.18929 | -80.60506 | 27250 ft | 422 kts | 110° |
| 2026-04-22 00:54 | 28.17847 | -80.57305 | 27262 ft | 446 kts | 110° |
| 2026-04-22 00:55 | 28.16739 | -80.53918 | 27270 ft | 467 kts | 109° |
| 2026-04-22 00:55 | 28.15588 | -80.50389 | 27269 ft | 488 kts | 110° |
| 2026-04-22 00:55 | 28.13098 | -80.42977 | 27275 ft | 521 kts | 111° |
| 2026-04-22 00:56 | 28.11398 | -80.39277 | 27265 ft | 536 kts | 122° |
| 2026-04-22 00:56 | 28.09173 | -80.35856 | 27276 ft | 544 kts | 131° |
| 2026-04-22 00:56 | 28.06464 | -80.32820 | 27271 ft | 549 kts | 141° |
| 2026-04-22 00:56 | 28.03360 | -80.30296 | 27272 ft | 550 kts | 150° |
| 2026-04-22 00:57 | 27.99993 | -80.28377 | 27276 ft | 547 kts | 160° |
| 2026-04-22 00:57 | 27.96413 | -80.26934 | 27292 ft | 543 kts | 164° |
| 2026-04-22 00:57 | 27.92828 | -80.25549 | 27296 ft | 542 kts | 164° |
| 2026-04-22 00:57 | 27.89261 | -80.24153 | 27294 ft | 539 kts | 164° |
| 2026-04-22 00:58 | 27.85758 | -80.22776 | 27294 ft | 537 kts | 164° |
| 2026-04-22 00:58 | 27.82215 | -80.21397 | 27292 ft | 535 kts | 164° |
| 2026-04-22 00:58 | 27.78688 | -80.20031 | 27286 ft | 534 kts | 164° |
| 2026-04-22 00:58 | 27.75168 | -80.18661 | 27282 ft | 532 kts | 164° |
| 2026-04-22 00:59 | 27.71710 | -80.17310 | 27281 ft | 531 kts | 164° |
| 2026-04-22 00:59 | 27.68208 | -80.15949 | 27281 ft | 530 kts | 164° |
| 2026-04-22 00:59 | 27.64711 | -80.14595 | 27280 ft | 529 kts | 164° |
| 2026-04-22 00:59 | 27.61276 | -80.13242 | 27276 ft | 528 kts | 163° |
| 2026-04-22 01:00 | 27.57831 | -80.11800 | 27276 ft | 527 kts | 163° |
| 2026-04-22 01:00 | 27.54368 | -80.10381 | 27278 ft | 527 kts | 163° |
| 2026-04-22 01:00 | 27.50918 | -80.08979 | 27269 ft | 528 kts | 163° |
| 2026-04-22 01:00 | 27.47457 | -80.07550 | 27276 ft | 528 kts | 163° |
| 2026-04-22 01:01 | 27.44041 | -80.06131 | 27278 ft | 529 kts | 163° |
| 2026-04-22 01:01 | 27.40572 | -80.04705 | 27271 ft | 529 kts | 163° |
| 2026-04-22 01:01 | 27.37080 | -80.03399 | 27264 ft | 526 kts | 168° |
| 2026-04-22 01:01 | 27.33532 | -80.02337 | 27272 ft | 526 kts | 169° |
| 2026-04-22 01:02 | 27.30033 | -80.01279 | 27275 ft | 526 kts | 168° |
| 2026-04-22 01:02 | 27.26489 | -80.00177 | 27095 ft | 530 kts | 168° |
| 2026-04-22 01:02 | 27.22933 | -79.98954 | 26189 ft | 533 kts | 165° |
| 2026-04-22 01:02 | 27.19432 | -79.97666 | 25964 ft | 520 kts | 165° |
| 2026-04-22 01:03 | 27.16058 | -79.96430 | 25797 ft | 516 kts | 166° |
| 2026-04-22 01:03 | 27.12606 | -79.95203 | 25390 ft | 524 kts | 166° |
| 2026-04-22 01:03 | 27.09116 | -79.93963 | 24623 ft | 526 kts | 166° |
| 2026-04-22 01:03 | 27.05702 | -79.92677 | 23637 ft | 507 kts | 163° |
| 2026-04-22 01:04 | 27.02420 | -79.91330 | 22526 ft | 498 kts | 162° |
| 2026-04-22 01:04 | 26.99183 | -79.90011 | 21465 ft | 489 kts | 162° |
| 2026-04-22 01:04 | 26.96039 | -79.88757 | 20459 ft | 480 kts | 162° |
| 2026-04-22 01:04 | 26.92918 | -79.87509 | 19471 ft | 471 kts | 162° |
| 2026-04-22 01:05 | 26.90110 | -79.86363 | 18529 ft | 380 kts | 162° |
| 2026-04-22 01:05 | 26.87857 | -79.85436 | 18101 ft | 307 kts | 162° |
| 2026-04-22 01:05 | 26.85946 | -79.84677 | 18222 ft | 288 kts | 163° |
| 2026-04-22 01:05 | 26.84027 | -79.83927 | 17295 ft | 305 kts | 162° |
| 2026-04-22 01:06 | 26.81931 | -79.83091 | 16041 ft | 333 kts | 161° |
| 2026-04-22 01:06 | 26.79677 | -79.82173 | 14878 ft | 353 kts | 160° |
| 2026-04-22 01:06 | 26.77350 | -79.81230 | 14321 ft | 348 kts | 160° |
| 2026-04-22 01:06 | 26.75144 | -79.80346 | 13942 ft | 334 kts | 160° |
| 2026-04-22 01:07 | 26.72955 | -79.79470 | 13524 ft | 331 kts | 160° |
| 2026-04-22 01:07 | 26.70760 | -79.78728 | 13081 ft | 329 kts | 171° |
| 2026-04-22 01:07 | 26.69232 | -79.78748 | 12885 ft | 333 kts | 189° |
| 2026-04-22 01:07 | 26.66278 | -79.79749 | 12851 ft | 341 kts | 201° |
| 2026-04-22 01:08 | 26.64048 | -79.80710 | 12500 ft | 339 kts | 202° |
| 2026-04-22 01:08 | 26.62605 | -79.81331 | 12249 ft | 333 kts | 202° |
| 2026-04-22 01:08 | 26.60441 | -79.82210 | 11870 ft | 326 kts | 200° |
| 2026-04-22 01:08 | 26.58319 | -79.83051 | 11500 ft | 321 kts | 200° |
| 2026-04-22 01:09 | 26.56235 | -79.83898 | 11142 ft | 316 kts | 201° |
| 2026-04-22 01:09 | 26.54224 | -79.84840 | 10782 ft | 310 kts | 205° |
| 2026-04-22 01:09 | 26.52245 | -79.85774 | 10445 ft | 307 kts | 202° |
| 2026-04-22 01:09 | 26.50296 | -79.86642 | 10101 ft | 304 kts | 202° |
| 2026-04-22 01:10 | 26.48354 | -79.87546 | 9744 ft | 298 kts | 204° |
| 2026-04-22 01:10 | 26.46473 | -79.88447 | 9412 ft | 290 kts | 204° |
| 2026-04-22 01:10 | 26.44628 | -79.89319 | 9084 ft | 284 kts | 203° |
| 2026-04-22 01:10 | 26.42809 | -79.90167 | 8771 ft | 283 kts | 203° |
| 2026-04-22 01:11 | 26.41007 | -79.91010 | 8462 ft | 284 kts | 203° |
| 2026-04-22 01:11 | 26.39182 | -79.91868 | 8145 ft | 285 kts | 203° |
| 2026-04-22 01:11 | 26.37425 | -79.92861 | 7994 ft | 276 kts | 211° |
| 2026-04-22 01:11 | 26.35795 | -79.93923 | 8006 ft | 267 kts | 210° |
| 2026-04-22 01:12 | 26.34177 | -79.94940 | 8010 ft | 274 kts | 210° |
| 2026-04-22 01:12 | 26.32503 | -79.96007 | 8020 ft | 279 kts | 210° |
| 2026-04-22 01:12 | 26.30798 | -79.97107 | 8021 ft | 286 kts | 210° |
| 2026-04-22 01:12 | 26.29068 | -79.98221 | 8009 ft | 292 kts | 210° |
| 2026-04-22 01:13 | 26.27288 | -79.99360 | 8012 ft | 295 kts | 210° |
| 2026-04-22 01:13 | 26.25499 | -80.00504 | 8010 ft | 296 kts | 210° |
| 2026-04-22 01:13 | 26.23708 | -80.01656 | 7933 ft | 298 kts | 210° |
| 2026-04-22 01:13 | 26.21949 | -80.02790 | 7720 ft | 294 kts | 210° |
| 2026-04-22 01:14 | 26.20214 | -80.03905 | 7479 ft | 290 kts | 210° |
| 2026-04-22 01:14 | 26.18551 | -80.05143 | 7182 ft | 286 kts | 223° |
| 2026-04-22 01:14 | 26.17511 | -80.06998 | 6909 ft | 281 kts | 249° |
| 2026-04-22 01:14 | 26.16891 | -80.09035 | 6730 ft | 276 kts | 253° |
| 2026-04-22 01:15 | 26.16310 | -80.11066 | 6518 ft | 275 kts | 253° |
| 2026-04-22 01:15 | 26.15701 | -80.13094 | 6272 ft | 275 kts | 252° |
| 2026-04-22 01:15 | 26.15115 | -80.15097 | 6022 ft | 275 kts | 256° |
| 2026-04-22 01:15 | 26.14967 | -80.17221 | 5754 ft | 277 kts | 271° |
| 2026-04-22 01:16 | 26.15026 | -80.19390 | 5539 ft | 282 kts | 274° |
| 2026-04-22 01:16 | 26.15071 | -80.21602 | 5283 ft | 287 kts | 272° |
| 2026-04-22 01:16 | 26.15074 | -80.23809 | 5032 ft | 289 kts | 272° |
| 2026-04-22 01:16 | 26.15071 | -80.26058 | 4762 ft | 287 kts | 272° |
| 2026-04-22 01:17 | 26.15080 | -80.28263 | 4505 ft | 280 kts | 272° |
| 2026-04-22 01:17 | 26.15090 | -80.30412 | 4254 ft | 273 kts | 271° |
| 2026-04-22 01:17 | 26.15075 | -80.32466 | 4019 ft | 264 kts | 269° |
| 2026-04-22 01:17 | 26.14555 | -80.34391 | 3686 ft | 260 kts | 238° |
| 2026-04-22 01:18 | 26.13306 | -80.35773 | 3471 ft | 248 kts | 210° |
| 2026-04-22 01:18 | 26.11846 | -80.36706 | 3355 ft | 237 kts | 205° |
| 2026-04-22 01:18 | 26.10434 | -80.37580 | 3195 ft | 236 kts | 206° |
| 2026-04-22 01:18 | 26.08993 | -80.38497 | 2985 ft | 239 kts | 206° |
| 2026-04-22 01:19 | 26.07548 | -80.39425 | 2774 ft | 239 kts | 206° |
| 2026-04-22 01:19 | 26.06101 | -80.40348 | 2562 ft | 238 kts | 206° |
| 2026-04-22 01:19 | 26.04726 | -80.41226 | 2361 ft | 222 kts | 205° |
| 2026-04-22 01:19 | 26.03430 | -80.42052 | 2159 ft | 209 kts | 205° |
| 2026-04-22 01:20 | 26.02146 | -80.42864 | 1972 ft | 214 kts | 205° |
| 2026-04-22 01:20 | 26.00769 | -80.43425 | 1678 ft | 207 kts | 180° |
| 2026-04-22 01:20 | 25.99481 | -80.43106 | 1589 ft | 177 kts | 148° |
| 2026-04-22 01:20 | 25.98628 | -80.42339 | 1630 ft | 140 kts | 122° |
| 2026-04-22 01:21 | 25.98143 | -80.41488 | 1682 ft | 124 kts | 114° |
| 2026-04-22 01:21 | 25.97690 | -80.40689 | 1705 ft | 125 kts | 115° |
| 2026-04-22 01:21 | 25.97210 | -80.39833 | 1713 ft | 134 kts | 115° |
| 2026-04-22 01:21 | 25.96699 | -80.38921 | 1709 ft | 142 kts | 116° |
| 2026-04-22 01:22 | 25.96171 | -80.37984 | 1708 ft | 142 kts | 116° |
| 2026-04-22 01:22 | 25.95669 | -80.37094 | 1697 ft | 133 kts | 116° |
| 2026-04-22 01:22 | 25.95198 | -80.36256 | 1583 ft | 125 kts | 115° |
| 2026-04-22 01:22 | 25.94742 | -80.35440 | 1406 ft | 121 kts | 116° |
| 2026-04-22 01:23 | 25.94310 | -80.34670 | 1261 ft | 114 kts | 116° |
| 2026-04-22 01:23 | 25.93906 | -80.33953 | 1116 ft | 108 kts | 115° |
| 2026-04-22 01:23 | 25.93503 | -80.33231 | 977 ft | 112 kts | 115° |
| 2026-04-22 01:23 | 25.93084 | -80.32484 | 837 ft | 115 kts | 115° |
| 2026-04-22 01:24 | 25.92661 | -80.31731 | 679 ft | 113 kts | 115° |
| 2026-04-22 01:24 | 25.92253 | -80.31003 | 515 ft | 109 kts | 115° |
| 2026-04-22 01:24 | 25.91850 | -80.30283 | 377 ft | 112 kts | 116° |
| 2026-04-22 01:24 | 25.91446 | -80.29539 | 215 ft | 113 kts | 118° |
| 2026-04-22 01:25 | 25.91030 | -80.28808 | 71 ft | 110 kts | 121° |
| 2026-04-22 01:25 | 25.90644 | -80.28141 | 20 ft | 90 kts | 122° |
| 2026-04-22 01:25 | 25.90396 | -80.27695 | 15 ft | 56 kts | 121° |
| 2026-04-22 01:25 | 25.90218 | -80.27383 | 12 ft | 40 kts | 122° |
| 2026-04-22 01:26 | 25.90120 | -80.27196 | 13 ft | 9 kts | 92° |
| 2026-04-22 01:26 | 25.90153 | -80.27160 | 13 ft | 10 kts | 27° |
| 2026-04-22 01:26 | 25.90172 | -80.27150 | 13 ft | 0 kts | 23° |
| 2026-04-22 01:26 | 25.90173 | -80.27149 | 13 ft | 3 kts | 23° |
| 2026-04-22 01:27 | 25.90201 | -80.27121 | 12 ft | 3 kts | 99° |
| 2026-04-22 01:27 | 25.90196 | -80.27059 | 12 ft | 10 kts | 68° |
| 2026-04-22 01:27 | 25.90248 | -80.27008 | 11 ft | 11 kts | 39° |
| 2026-04-22 01:27 | 25.90270 | -80.26949 | 12 ft | 3 kts | 126° |
| 2026-04-22 01:28 | 25.90268 | -80.26949 | 12 ft | 0 kts | 147° |